Time;durP1;ratioP1;P1;durP2;ratioP2;P2;SDS_P1;SDS_P2;PMS_P1;PMS_P2;Temp;Humidity;BMP_temperature;BMP_pressure;BME280_temperature;BME280_humidity;BME280_pressure;Samples;Min_cycle;Max_cycle;Signal;HPM_P1;HPM_P2
2022/03/29 00:00:30;;;;;;;;;;;;;;;10.44;59.78;99562.50;4483494;32;20000;-85
2022/03/29 00:02:56;;;;;;;;;;;;;;;10.33;59.77;99565.44;4484957;32;19992;-84
2022/03/29 00:05:21;;;;;;;;;;;;;;;10.23;59.76;99561.47;4484463;32;24945;-85
2022/03/29 00:07:46;;;;;;;;;;;;;;;10.39;59.78;99564.38;4470128;32;20008;-86
2022/03/29 00:10:11;;;;;;;;;;;;;;;10.38;59.77;99554.88;4470465;32;19988;-86
2022/03/29 00:12:37;;;;;;;;;;;;;;;10.34;59.77;99558.50;4483494;32;20359;-86
2022/03/29 00:15:03;;;;;;;;;;;;;;;10.50;59.78;99551.00;4483593;32;19976;-86
2022/03/29 00:17:28;;;;;;;;;;;;;;;10.35;59.77;99544.56;4483288;31;20708;-87
2022/03/29 00:19:53;;;;;;;;;;;;;;;10.48;59.78;99535.47;4485056;31;20038;-86
2022/03/29 00:22:18;;;;;;;;;;;;;;;10.30;59.77;99536.94;4499423;31;19988;-87
2022/03/29 00:24:44;;;;;;;;;;;;;;;10.26;59.77;99531.91;4485656;31;25396;-86
2022/03/29 00:27:09;;;;;;;;;;;;;;;10.28;59.77;99530.09;4499421;31;20003;-87
2022/03/29 00:29:35;;;;;;;;;;;;;;;10.23;59.76;99524.19;4485900;31;20027;-86
2022/03/29 00:32:01;;;;;;;;;;;;;;;10.34;59.77;99519.47;4500339;31;19984;-88
2022/03/29 00:34:26;;;;;;;;;;;;;;;10.42;59.78;99517.47;4498828;31;19972;-86
2022/03/29 00:36:51;;;;;;;;;;;;;;;10.27;59.77;99512.78;4500320;31;20044;-86
2022/03/29 00:39:17;;;;;;;;;;;;;;;10.29;59.76;99521.37;4499327;31;20008;-86
2022/03/29 00:41:42;;;;;;;;;;;;;;;10.54;59.79;99518.78;4498943;31;19990;-86
2022/03/29 00:44:07;;;;;;;;;;;;;;;10.48;59.78;99514.63;4499669;31;25451;-86
2022/03/29 00:46:33;;;;;;;;;;;;;;;10.27;59.77;99508.44;4498625;31;20599;-86
2022/03/29 00:48:58;;;;;;;;;;;;;;;10.19;59.76;99509.56;4499126;31;20013;-86
2022/03/29 00:51:23;;;;;;;;;;;;;;;10.22;59.76;99506.91;4485730;31;20008;-86
2022/03/29 00:53:49;;;;;;;;;;;;;;;10.14;59.75;99505.34;4485615;31;20036;-86
2022/03/29 00:56:14;;;;;;;;;;;;;;;10.23;59.77;99506.00;4485672;31;20011;-86
2022/03/29 00:58:39;;;;;;;;;;;;;;;10.09;59.77;99496.88;4498773;31;19987;-86
2022/03/29 01:01:05;;;;;;;;;;;;;;;10.12;59.77;99493.31;4498725;31;20059;-86
2022/03/29 01:03:30;;;;;;;;;;;;;;;10.01;59.76;99487.62;4498933;31;20012;-86
2022/03/29 01:05:55;;;;;;;;;;;;;;;10.14;59.75;99481.09;4499795;31;20302;-86
2022/03/29 01:08:21;;;;;;;;;;;;;;;9.93;59.75;99480.06;4497934;31;20002;-85
2022/03/29 01:10:46;;;;;;;;;;;;;;;10.03;59.76;99478.03;4484893;31;20004;-85
2022/03/29 01:13:12;;;;;;;;;;;;;;;10.07;59.75;99479.62;4498883;31;20290;-85
2022/03/29 01:15:37;;;;;;;;;;;;;;;9.97;59.75;99479.09;4485547;31;19991;-86
2022/03/29 01:18:05;;;;;;;;;;;;;;;9.85;59.74;99469.09;4499572;31;21966;-85
2022/03/29 01:20:30;;;;;;;;;;;;;;;9.97;59.75;99484.28;4485639;31;19984;-85
2022/03/29 01:22:56;;;;;;;;;;;;;;;9.96;59.75;99481.75;4499985;31;19972;-86
2022/03/29 01:25:25;;;;;;;;;;;;;;;9.91;59.74;99468.03;4499939;31;19990;-86
2022/03/29 01:27:51;;;;;;;;;;;;;;;9.57;59.73;99465.72;4500079;31;20000;-85
2022/03/29 01:30:17;;;;;;;;;;;;;;;9.62;59.73;99467.25;4499841;31;19984;-85
2022/03/29 01:32:47;;;;;;;;;;;;;;;9.82;59.74;99480.44;4498599;31;19990;-86
2022/03/29 01:35:12;;;;;;;;;;;;;;;9.65;59.73;99471.50;4498436;31;19996;-86
2022/03/29 01:37:37;;;;;;;;;;;;;;;9.70;59.73;99470.47;4499785;31;19980;-86
2022/03/29 01:40:12;;;;;;;;;;;;;;;9.73;59.74;99466.91;4499902;31;20000;-85
2022/03/29 01:42:38;;;;;;;;;;;;;;;9.71;59.73;99455.72;4499357;31;19980;-87
2022/03/29 01:45:03;;;;;;;;;;;;;;;9.67;59.73;99448.91;4498572;31;20007;-86
2022/03/29 01:47:29;;;;;;;;;;;;;;;9.55;59.72;99442.38;4499634;31;19999;-87
2022/03/29 01:49:54;;;;;;;;;;;;;;;9.70;59.73;99438.41;4498385;31;20024;-87
2022/03/29 01:52:19;;;;;;;;;;;;;;;9.65;59.73;99429.91;4499140;31;28008;-87
2022/03/29 01:54:45;;;;;;;;;;;;;;;9.66;59.73;99432.47;4498256;31;20026;-87
2022/03/29 01:57:10;;;;;;;;;;;;;;;9.80;59.75;99427.66;4498174;31;19980;-87
2022/03/29 02:02:20;;;;;;;;;;;;;;;9.65;59.74;99432.50;4498464;31;20279;-87
2022/03/29 02:04:45;;;;;;;;;;;;;;;9.70;59.73;99423.69;4498783;31;25009;-87
2022/03/29 02:07:11;;;;;;;;;;;;;;;9.94;59.75;99415.97;4484715;31;20021;-86
2022/03/29 02:09:36;;;;;;;;;;;;;;;9.81;59.74;99411.16;4498108;31;20273;-86
2022/03/29 02:12:03;;;;;;;;;;;;;;;9.69;59.73;99402.91;4484736;31;20026;-87
2022/03/29 02:14:28;;;;;;;;;;;;;;;9.61;59.73;99408.38;4484886;31;20002;-86
2022/03/29 02:16:53;;;;;;;;;;;;;;;9.69;59.73;99408.13;4484507;31;20304;-86
2022/03/29 02:19:19;;;;;;;;;;;;;;;9.56;59.73;99404.25;4486683;31;19984;-86
2022/03/29 02:21:44;;;;;;;;;;;;;;;9.69;59.73;99410.72;4486877;31;20315;-86
2022/03/29 02:24:09;;;;;;;;;;;;;;;9.83;59.74;99403.31;4486964;31;20019;-86
2022/03/29 02:26:34;;;;;;;;;;;;;;;9.66;59.74;99401.28;4486114;31;34304;-86
2022/03/29 02:29:00;;;;;;;;;;;;;;;9.63;59.73;99405.72;4500186;31;20362;-86
2022/03/29 02:31:25;;;;;;;;;;;;;;;9.70;59.73;99396.81;4501146;31;19976;-87
2022/03/29 02:33:50;;;;;;;;;;;;;;;9.67;59.73;99396.94;4486850;31;20016;-89
2022/03/29 02:36:16;;;;;;;;;;;;;;;9.47;59.72;99393.28;4500048;31;20047;-86
2022/03/29 02:38:41;;;;;;;;;;;;;;;9.50;59.72;99394.91;4499968;31;20328;-86
2022/03/29 02:41:06;;;;;;;;;;;;;;;9.52;59.72;99390.50;4500028;31;20022;-86
2022/03/29 02:43:31;;;;;;;;;;;;;;;9.64;59.73;99394.44;4500015;31;20044;-86
2022/03/29 02:45:57;;;;;;;;;;;;;;;9.56;59.73;99397.31;4499703;31;19992;-86
2022/03/29 02:48:22;;;;;;;;;;;;;;;9.43;59.72;99393.41;4500078;31;19994;-85
2022/03/29 02:50:47;;;;;;;;;;;;;;;9.44;59.72;99389.91;4499499;31;24492;-86
2022/03/29 02:53:15;;;;;;;;;;;;;;;9.39;59.71;99378.81;4499993;31;20019;-85
2022/03/29 02:55:41;;;;;;;;;;;;;;;9.45;59.72;99381.19;4500051;31;20052;-87
2022/03/29 02:58:06;;;;;;;;;;;;;;;9.38;59.71;99380.56;4499921;31;20003;-87
2022/03/29 03:00:32;;;;;;;;;;;;;;;9.45;59.72;99389.00;4499795;31;19961;-87
2022/03/29 03:02:57;;;;;;;;;;;;;;;9.45;59.71;99383.81;4486645;31;20090;-86
2022/03/29 03:05:25;;;;;;;;;;;;;;;9.40;59.71;99386.56;4501024;31;19976;-87
2022/03/29 03:07:51;;;;;;;;;;;;;;;9.25;59.70;99381.03;4499800;31;19972;-87
2022/03/29 03:10:16;;;;;;;;;;;;;;;9.38;59.71;99375.37;4486450;31;20073;-87
2022/03/29 03:12:42;;;;;;;;;;;;;;;9.35;59.71;99379.81;4499871;31;19972;-87
2022/03/29 03:15:08;;;;;;;;;;;;;;;9.36;59.72;99378.91;4499916;31;20042;-87
2022/03/29 03:17:33;;;;;;;;;;;;;;;9.44;59.72;99379.50;4486388;31;19984;-87
2022/03/29 03:19:58;;;;;;;;;;;;;;;9.51;59.72;99378.44;4499798;31;19972;-87
2022/03/29 03:22:23;;;;;;;;;;;;;;;9.64;59.73;99373.66;4486322;31;20015;-87
2022/03/29 03:24:49;;;;;;;;;;;;;;;9.61;59.73;99376.34;4499825;31;20003;-87
2022/03/29 03:27:16;;;;;;;;;;;;;;;9.48;59.72;99362.94;4486574;31;20348;-86
2022/03/29 03:29:41;;;;;;;;;;;;;;;9.42;59.72;99361.37;4499786;31;19975;-86
2022/03/29 03:32:07;;;;;;;;;;;;;;;9.41;59.71;99367.47;4501054;31;20073;-86
2022/03/29 03:34:32;;;;;;;;;;;;;;;9.33;59.71;99361.69;4499812;31;20028;-87
2022/03/29 03:36:58;;;;;;;;;;;;;;;9.28;59.71;99365.34;4499298;31;20048;-86
2022/03/29 03:39:23;;;;;;;;;;;;;;;9.45;59.72;99355.22;4499787;31;20037;-86
2022/03/29 03:41:49;;;;;;;;;;;;;;;9.16;59.70;99361.37;4499612;31;20617;-86
2022/03/29 03:44:14;;;;;;;;;;;;;;;9.26;59.71;99355.00;4499181;31;23458;-86
2022/03/29 03:46:39;;;;;;;;;;;;;;;9.56;59.73;99350.53;4499604;31;19980;-86
2022/03/29 03:49:05;;;;;;;;;;;;;;;9.42;59.72;99350.12;4499535;31;19991;-86
2022/03/29 03:51:30;;;;;;;;;;;;;;;9.61;59.73;99345.16;4499550;31;20011;-86
2022/03/29 03:53:55;;;;;;;;;;;;;;;9.63;59.72;99354.59;4499600;31;20367;-86
2022/03/29 03:56:21;;;;;;;;;;;;;;;9.70;59.72;99355.22;4499395;31;20021;-88
2022/03/29 03:58:46;;;;;;;;;;;;;;;9.57;59.71;99348.78;4499461;31;20578;-87
2022/03/29 04:01:12;;;;;;;;;;;;;;;9.65;59.73;99347.59;4499220;31;19998;-86
2022/03/29 04:03:37;;;;;;;;;;;;;;;9.58;59.72;99348.72;4499395;31;20461;-86
2022/03/29 04:06:03;;;;;;;;;;;;;;;9.67;59.73;99344.94;4486018;31;20297;-84
2022/03/29 04:08:28;;;;;;;;;;;;;;;9.70;59.73;99344.84;4500627;31;20275;-84
2022/03/29 04:10:53;;;;;;;;;;;;;;;9.80;59.74;99348.84;4500322;31;19984;-84
2022/03/29 04:13:19;;;;;;;;;;;;;;;9.79;59.74;99342.78;4499341;31;19996;-84
2022/03/29 04:15:45;;;;;;;;;;;;;;;9.75;59.73;99343.81;4499235;31;19998;-85
2022/03/29 04:18:10;;;;;;;;;;;;;;;9.69;59.73;99344.00;4499338;31;19988;-86
2022/03/29 04:20:35;;;;;;;;;;;;;;;9.70;59.72;99342.25;4499048;31;20027;-86
2022/03/29 04:23:00;;;;;;;;;;;;;;;9.89;59.74;99340.69;4500600;31;19972;-87
2022/03/29 04:25:26;;;;;;;;;;;;;;;9.82;59.74;99339.22;4500753;31;20283;-87
2022/03/29 04:27:51;;;;;;;;;;;;;;;9.79;59.74;99341.94;4498797;31;23648;-86
2022/03/29 04:30:16;;;;;;;;;;;;;;;9.82;59.73;99334.03;4486070;31;20004;-86
2022/03/29 04:32:41;;;;;;;;;;;;;;;9.89;59.74;99337.25;4499098;31;19980;-86
2022/03/29 04:35:07;;;;;;;;;;;;;;;10.03;59.75;99345.41;4485777;31;19979;-85
2022/03/29 04:37:32;;;;;;;;;;;;;;;9.92;59.74;99334.53;4500358;31;19998;-86
2022/03/29 04:39:57;;;;;;;;;;;;;;;9.94;59.75;99331.00;4497875;31;28083;-85
2022/03/29 04:42:23;;;;;;;;;;;;;;;10.02;59.75;99322.91;4499152;31;26974;-86
2022/03/29 04:44:48;;;;;;;;;;;;;;;10.03;59.75;99322.84;4485499;31;20230;-85
2022/03/29 04:47:13;;;;;;;;;;;;;;;10.07;59.75;99323.59;4498759;31;19964;-86
2022/03/29 04:49:39;;;;;;;;;;;;;;;10.03;59.75;99317.66;4498228;31;31346;-86
2022/03/29 04:52:06;;;;;;;;;;;;;;;10.08;59.74;99317.47;4499019;31;20016;-86
2022/03/29 04:54:31;;;;;;;;;;;;;;;10.11;59.75;99314.75;4498779;31;20039;-86
2022/03/29 04:56:56;;;;;;;;;;;;;;;10.24;59.75;99310.00;4485538;31;20629;-85
2022/03/29 04:59:22;;;;;;;;;;;;;;;9.98;59.74;99303.12;4498741;31;20317;-85
2022/03/29 05:01:47;;;;;;;;;;;;;;;10.03;59.75;99309.84;4500070;31;20035;-85
2022/03/29 05:04:12;;;;;;;;;;;;;;;10.21;59.76;99304.91;4498189;31;25730;-86
2022/03/29 05:06:37;;;;;;;;;;;;;;;10.09;59.75;99306.19;4498677;31;20258;-85
2022/03/29 05:09:03;;;;;;;;;;;;;;;9.83;59.73;99307.97;4500115;31;20037;-86
2022/03/29 05:11:29;;;;;;;;;;;;;;;9.85;59.75;99308.78;4500080;31;19986;-85
2022/03/29 05:13:54;;;;;;;;;;;;;;;10.01;59.75;99310.81;4485399;31;20020;-86
2022/03/29 05:16:19;;;;;;;;;;;;;;;9.91;59.74;99307.69;4484745;31;28549;-86
2022/03/29 05:18:45;;;;;;;;;;;;;;;10.03;59.75;99309.84;4485356;31;20037;-84
2022/03/29 05:21:10;;;;;;;;;;;;;;;10.19;59.76;99307.53;4498494;31;20031;-85
2022/03/29 05:23:36;;;;;;;;;;;;;;;10.16;59.76;99303.28;4499796;31;20380;-86
2022/03/29 05:26:01;;;;;;;;;;;;;;;9.92;59.74;99311.97;4485224;31;19972;-85
2022/03/29 05:28:26;;;;;;;;;;;;;;;10.24;59.75;99315.22;4498268;31;20014;-86
2022/03/29 05:30:51;;;;;;;;;;;;;;;10.09;59.76;99313.97;4498980;31;27288;-85
2022/03/29 05:33:18;;;;;;;;;;;;;;;10.47;59.76;99311.72;4498502;31;20249;-86
2022/03/29 05:35:43;;;;;;;;;;;;;;;10.51;59.78;99318.50;4498534;31;20087;-85
2022/03/29 05:38:09;;;;;;;;;;;;;;;10.67;59.78;99309.22;4498401;31;20408;-85
2022/03/29 05:40:34;;;;;;;;;;;;;;;10.75;59.78;99313.19;4485043;31;20020;-85
2022/03/29 05:42:59;;;;;;;;;;;;;;;10.92;59.80;99304.72;4498399;31;20035;-85
2022/03/29 05:45:25;;;;;;;;;;;;;;;11.24;59.82;99302.53;4499601;31;20019;-85
2022/03/29 05:50:34;;;;;;;;;;;;;;;11.46;59.83;99305.94;4499685;31;19998;-85
2022/03/29 05:53:01;;;;;;;;;;;;;;;11.73;59.84;99300.44;4498870;31;19968;-85
2022/03/29 05:55:27;;;;;;;;;;;;;;;11.83;59.85;99300.00;4486935;31;19994;-86
2022/03/29 05:57:52;;;;;;;;;;;;;;;12.03;59.86;99301.69;4500050;31;20040;-86
2022/03/29 06:00:18;;;;;;;;;;;;;;;12.01;59.86;99306.16;4500202;31;20020;-85
2022/03/29 06:02:43;;;;;;;;;;;;;;;12.33;59.87;99299.47;4501241;31;19983;-85
2022/03/29 06:05:09;;;;;;;;;;;;;;;12.43;59.89;99297.28;4485141;31;20000;-85
2022/03/29 06:07:34;;;;;;;;;;;;;;;12.77;59.90;99302.59;4501214;31;19988;-86
2022/03/29 06:09:59;;;;;;;;;;;;;;;12.73;59.90;99294.97;4500188;31;19998;-85
2022/03/29 06:12:25;;;;;;;;;;;;;;;12.89;59.91;99298.53;4486948;31;20010;-85
2022/03/29 06:14:50;;;;;;;;;;;;;;;13.12;59.93;99293.03;4500235;31;19978;-85
2022/03/29 06:17:16;;;;;;;;;;;;;;;13.09;59.91;99294.97;4486916;31;20261;-86
2022/03/29 06:19:42;;;;;;;;;;;;;;;13.43;59.94;99294.13;4501460;31;20306;-86
2022/03/29 06:22:07;;;;;;;;;;;;;;;13.58;59.95;99295.13;4500066;31;19999;-85
2022/03/29 06:24:32;;;;;;;;;;;;;;;13.76;59.95;99287.19;4500586;31;33205;-85
2022/03/29 06:26:58;;;;;;;;;;;;;;;13.99;59.96;99283.34;4499895;31;20023;-86
2022/03/29 06:29:23;;;;;;;;;;;;;;;13.90;59.96;99282.97;4501460;31;19979;-86
2022/03/29 06:31:48;;;;;;;;;;;;;;;14.20;59.98;99275.28;4500702;31;24870;-85
2022/03/29 06:34:13;;;;;;;;;;;;;;;14.29;59.99;99270.37;4500102;31;20335;-86
2022/03/29 06:36:39;;;;;;;;;;;;;;;14.43;59.99;99267.00;4500082;31;19988;-86
2022/03/29 06:39:05;;;;;;;;;;;;;;;14.45;59.99;99266.97;4501476;31;20068;-86
2022/03/29 06:41:30;;;;;;;;;;;;;;;14.72;60.01;99266.25;4500028;31;19995;-85
2022/03/29 06:43:56;;;;;;;;;;;;;;;14.72;60.01;99263.63;4501449;31;19980;-85
2022/03/29 06:46:22;;;;;;;;;;;;;;;14.93;60.01;99264.19;4499745;31;20003;-85
2022/03/29 06:48:47;;;;;;;;;;;;;;;15.20;60.03;99260.91;4501397;31;20032;-86
2022/03/29 06:51:12;;;;;;;;;;;;;;;15.21;60.03;99262.59;4486146;31;26472;-86
2022/03/29 06:53:40;;;;;;;;;;;;;;;15.49;60.05;99254.75;4500052;31;20040;-86
2022/03/29 06:56:07;;;;;;;;;;;;;;;15.71;60.06;99256.97;4486980;31;20004;-85
2022/03/29 06:58:32;;;;;;;;;;;;;;;15.86;60.07;99247.31;4500157;31;20481;-86
2022/03/29 07:00:57;;;;;;;;;;;;;;;15.93;60.08;99254.72;4501501;31;19981;-86
2022/03/29 07:03:23;;;;;;;;;;;;;;;16.12;60.08;99256.22;4499117;31;22185;-86
2022/03/29 07:05:49;;;;;;;;;;;;;;;16.37;60.09;99250.25;4486953;31;19987;-85
2022/03/29 07:08:16;;;;;;;;;;;;;;;16.61;60.10;99248.69;4500029;31;20015;-85
2022/03/29 07:13:26;;;;;;;;;;;;;;;16.74;60.11;99244.31;4499929;31;19986;-85
2022/03/29 07:15:51;;;;;;;;;;;;;;;16.50;60.10;99244.09;4501052;31;19976;-86
2022/03/29 07:18:17;;;;;;;;;;;;;;;16.83;60.12;99245.53;4501094;31;19987;-86
2022/03/29 07:20:42;;;;;;;;;;;;;;;17.01;60.13;99243.44;4501073;31;20323;-86
2022/03/29 07:23:07;;;;;;;;;;;;;;;17.02;60.13;99242.50;4485994;31;20324;-85
2022/03/29 07:25:33;;;;;;;;;;;;;;;17.08;60.14;99245.59;4500956;31;20265;-86
2022/03/29 07:27:59;;;;;;;;;;;;;;;17.12;60.14;99241.81;4486456;31;20000;-85
2022/03/29 07:30:24;;;;;;;;;;;;;;;17.23;60.15;99234.97;4499638;31;19979;-86
2022/03/29 07:32:50;;;;;;;;;;;;;;;17.51;60.15;99247.97;4499483;31;20262;-86
2022/03/29 07:35:16;;;;;;;;;;;;;;;17.49;60.16;99237.50;4500967;31;19988;-86
2022/03/29 07:37:41;;;;;;;;;;;;;;;17.65;60.16;99237.31;4501099;31;19994;-85
2022/03/29 07:40:08;;;;;;;;;;;;;;;17.79;60.18;99231.13;4501085;31;19981;-85
2022/03/29 07:42:35;;;;;;;;;;;;;;;17.97;60.18;99227.19;4499537;31;19983;-86
2022/03/29 07:45:01;;;;;;;;;;;;;;;18.07;60.19;99235.28;4500906;31;20028;-86
2022/03/29 07:47:26;;;;;;;;;;;;;;;18.19;60.20;99223.87;4499738;31;20008;-86
2022/03/29 07:49:51;;;;;;;;;;;;;;;18.28;60.20;99222.38;4500791;31;20017;-86
2022/03/29 07:52:18;;;;;;;;;;;;;;;18.39;60.21;99222.44;4499650;31;19999;-86
2022/03/29 07:54:43;;;;;;;;;;;;;;;18.50;60.21;99217.25;4486595;31;20284;-86
2022/03/29 07:57:09;;;;;;;;;;;;;;;18.61;60.21;99216.44;4486250;31;20027;-86
2022/03/29 07:59:38;;;;;;;;;;;;;;;18.61;60.21;99222.56;4501112;31;20297;-86
2022/03/29 08:02:04;;;;;;;;;;;;;;;18.77;60.23;99219.66;4486469;31;20802;-86
2022/03/29 08:04:30;;;;;;;;;;;;;;;18.77;60.24;99221.47;4500996;31;19998;-85
2022/03/29 08:06:55;;;;;;;;;;;;;;;18.98;60.23;99222.50;4499294;31;20245;-86
2022/03/29 08:09:20;;;;;;;;;;;;;;;19.08;60.25;99220.00;4500987;31;19999;-86
2022/03/29 08:11:45;;;;;;;;;;;;;;;19.06;60.24;99217.50;4499568;31;20013;-86
2022/03/29 08:14:12;;;;;;;;;;;;;;;19.35;60.26;99203.88;4499325;31;20455;-87
2022/03/29 08:16:37;;;;;;;;;;;;;;;19.60;60.27;99209.81;4498424;31;19988;-86
2022/03/29 08:19:03;;;;;;;;;;;;;;;19.61;60.28;99208.84;4500245;31;29359;-86
2022/03/29 08:24:12;;;;;;;;;;;;;;;20.14;60.30;99192.37;4499583;31;20371;-86
2022/03/29 08:26:37;;;;;;;;;;;;;;;20.39;60.32;99197.38;4500563;31;19973;-86
2022/03/29 08:29:02;;;;;;;;;;;;;;;20.33;60.31;99191.72;4500765;31;20010;-86
2022/03/29 08:31:28;;;;;;;;;;;;;;;20.50;60.32;99189.44;4498860;31;19968;-86
2022/03/29 08:33:53;;;;;;;;;;;;;;;20.64;60.32;99187.47;4500608;31;20016;-86
2022/03/29 08:36:18;;;;;;;;;;;;;;;20.74;60.33;99186.56;4500392;31;20014;-86
2022/03/29 08:38:44;;;;;;;;;;;;;;;20.98;60.34;99188.97;4499342;31;19994;-86
2022/03/29 08:41:09;;;;;;;;;;;;;;;20.97;60.34;99187.31;4500572;31;19968;-86
2022/03/29 08:43:35;;;;;;;;;;;;;;;21.19;60.36;99185.50;4499138;31;20003;-86
2022/03/29 08:46:00;;;;;;;;;;;;;;;21.38;60.38;99177.69;4498974;31;20010;-86
2022/03/29 08:48:26;;;;;;;;;;;;;;;21.59;60.38;99175.84;4499284;31;19976;-86
2022/03/29 08:50:52;;;;;;;;;;;;;;;21.74;60.38;99174.50;4500650;31;20349;-86
2022/03/29 08:53:17;;;;;;;;;;;;;;;21.87;60.40;99174.28;4499278;31;19992;-86
2022/03/29 08:55:44;;;;;;;;;;;;;;;22.10;60.41;99171.44;4499361;31;19995;-86
2022/03/29 08:58:09;;;;;;;;;;;;;;;22.33;60.42;99163.13;4500588;31;19984;-86
2022/03/29 09:00:35;;;;;;;;;;;;;;;22.55;60.42;99163.84;4499053;31;20004;-86
2022/03/29 09:03:00;;;;;;;;;;;;;;;22.64;60.44;99153.22;4485796;31;20356;-87
2022/03/29 09:05:29;;;;;;;;;;;;;;;22.72;60.44;99151.69;4500409;31;20241;-86
2022/03/29 09:07:59;;;;;;;;;;;;;;;22.74;60.45;99160.34;4500347;31;20382;-87
2022/03/29 09:10:38;;;;;;;;;;;;;;;22.91;60.45;99154.34;4500403;31;20020;-86
2022/03/29 09:13:33;;;;;;;;;;;;;;;23.03;60.46;99149.72;4498982;31;20010;-87
2022/03/29 09:15:59;;;;;;;;;;;;;;;23.10;60.46;99146.34;4482254;31;19995;-86
2022/03/29 09:18:25;;;;;;;;;;;;;;;23.25;60.48;99141.44;4485844;31;20016;-86
2022/03/29 09:21:11;;;;;;;;;;;;;;;23.45;60.48;99134.25;4498688;31;19972;-87
2022/03/29 09:23:36;;;;;;;;;;;;;;;23.36;60.47;99135.09;4500232;31;20359;-86
2022/03/29 09:26:02;;;;;;;;;;;;;;;23.57;60.49;99131.28;4498694;31;20016;-86
2022/03/29 09:28:32;;;;;;;;;;;;;;;23.72;60.49;99126.31;4499985;31;20313;-86
2022/03/29 09:30:57;;;;;;;;;;;;;;;23.93;60.50;99126.06;4499999;31;20336;-86
2022/03/29 09:33:30;;;;;;;;;;;;;;;23.95;60.50;99128.56;4499806;31;19996;-86
2022/03/29 09:36:03;;;;;;;;;;;;;;;23.96;60.50;99124.94;4500125;31;19998;-86
2022/03/29 09:38:40;;;;;;;;;;;;;;;23.97;60.51;99123.94;4499983;31;20614;-86
2022/03/29 09:41:06;;;;;;;;;;;;;;;24.11;60.52;99124.25;4499869;31;19972;-86
2022/03/29 09:43:31;;;;;;;;;;;;;;;24.34;60.52;99115.84;4485430;31;20007;-86
2022/03/29 09:46:03;;;;;;;;;;;;;;;24.40;60.53;99120.59;4485306;31;19996;-86
2022/03/29 09:48:31;;;;;;;;;;;;;;;24.47;60.53;99116.31;4485417;31;19976;-86
2022/03/29 09:51:09;;;;;;;;;;;;;;;24.60;60.54;99108.78;4499845;31;19980;-86
2022/03/29 09:53:45;;;;;;;;;;;;;;;24.70;60.54;99106.03;4499918;31;19976;-86
2022/03/29 09:56:11;;;;;;;;;;;;;;;25.00;60.56;99110.09;4498522;31;20000;-87
2022/03/29 09:58:36;;;;;;;;;;;;;;;25.13;60.57;99104.38;4498315;31;20080;-86
2022/03/29 10:01:02;;;;;;;;;;;;;;;25.12;60.56;99100.03;4499578;31;19995;-86
2022/03/29 10:03:27;;;;;;;;;;;;;;;25.17;60.57;99098.56;4499731;31;20313;-86
2022/03/29 10:05:53;;;;;;;;;;;;;;;25.21;60.58;99102.59;4498294;31;20000;-86
2022/03/29 10:11:07;;;;;;;;;;;;;;;25.23;60.57;99086.44;4498312;31;20346;-86
2022/03/29 10:13:32;;;;;;;;;;;;;;;25.23;60.57;99081.13;4499490;31;19996;-86
2022/03/29 10:16:00;;;;;;;;;;;;;;;25.39;60.58;99073.22;4498574;31;27351;-86
2022/03/29 10:18:25;;;;;;;;;;;;;;;25.55;60.59;99067.09;4499211;31;20307;-86
2022/03/29 10:20:51;;;;;;;;;;;;;;;25.61;60.60;99059.31;4499202;31;19972;-85
2022/03/29 10:23:18;;;;;;;;;;;;;;;25.80;60.60;99060.06;4484637;31;20031;-85
2022/03/29 10:25:43;;;;;;;;;;;;;;;25.74;60.59;99056.19;4499319;31;19991;-86
2022/03/29 10:28:08;;;;;;;;;;;;;;;25.29;60.58;99049.34;4497816;31;20346;-85
2022/03/29 10:30:34;;;;;;;;;;;;;;;25.27;60.57;99053.16;4498584;31;25853;-86
2022/03/29 10:33:18;;;;;;;;;;;;;;;25.45;60.59;99043.25;4497743;31;20000;-86
2022/03/29 10:35:58;;;;;;;;;;;;;;;25.76;60.60;99040.87;4499021;31;19999;-85
2022/03/29 10:38:44;;;;;;;;;;;;;;;25.78;60.61;99041.53;4499345;31;20032;-86
2022/03/29 10:41:37;;;;;;;;;;;;;;;25.83;60.60;99033.06;4501535;31;19973;-85
2022/03/29 10:44:08;;;;;;;;;;;;;;;25.95;60.61;99019.25;4501646;31;20007;-86
2022/03/29 10:46:36;;;;;;;;;;;;;;;26.07;60.61;99026.94;4487472;31;20003;-86
2022/03/29 10:49:21;;;;;;;;;;;;;;;26.04;60.62;99022.78;4500196;31;20007;-86
2022/03/29 10:51:48;;;;;;;;;;;;;;;25.92;60.62;99018.75;4501749;31;20016;-87
2022/03/29 10:54:49;;;;;;;;;;;;;;;25.92;60.61;99016.09;4500356;31;20407;-85
2022/03/29 10:57:20;;;;;;;;;;;;;;;25.84;60.61;99006.25;4423324;32;20013;-86
2022/03/29 10:59:46;;;;;;;;;;;;;;;25.84;60.61;99011.59;4485987;31;20298;-86
2022/03/29 11:02:15;;;;;;;;;;;;;;;25.96;60.61;99004.09;4486689;31;19984;-86
2022/03/29 11:04:59;;;;;;;;;;;;;;;26.01;60.62;98986.56;4499932;31;20049;-86
2022/03/29 11:07:24;;;;;;;;;;;;;;;26.10;60.62;98983.94;4501560;31;20003;-85
2022/03/29 11:09:49;;;;;;;;;;;;;;;25.83;60.60;98988.59;4500904;31;23998;-85
2022/03/29 11:12:34;;;;;;;;;;;;;;;26.12;60.62;98985.44;4499524;31;20031;-85
2022/03/29 11:14:59;;;;;;;;;;;;;;;26.10;60.63;98976.75;4499752;31;20006;-86
2022/03/29 11:17:28;;;;;;;;;;;;;;;26.33;60.63;98958.25;4486377;31;20024;-86
2022/03/29 11:19:54;;;;;;;;;;;;;;;26.82;60.66;98955.50;4501051;31;19983;-86
2022/03/29 11:22:23;;;;;;;;;;;;;;;27.31;60.68;98958.00;4499790;31;20332;-85
2022/03/29 11:24:48;;;;;;;;;;;;;;;26.92;60.66;98948.09;4501023;31;20332;-86
2022/03/29 11:27:19;;;;;;;;;;;;;;;26.81;60.66;98941.31;4499648;31;19995;-86
2022/03/29 11:29:45;;;;;;;;;;;;;;;26.75;60.65;98942.00;4501049;31;19972;-86
2022/03/29 11:32:11;;;;;;;;;;;;;;;26.88;60.66;98944.13;4500965;31;20397;-86
2022/03/29 11:34:37;;;;;;;;;;;;;;;27.18;60.68;98938.00;4499709;31;19992;-86
2022/03/29 11:37:03;;;;;;;;;;;;;;;27.00;60.66;98925.94;4501106;31;19992;-86
2022/03/29 11:39:28;;;;;;;;;;;;;;;26.60;60.64;98933.03;4500695;31;20020;-86
2022/03/29 11:41:54;;;;;;;;;;;;;;;26.60;60.65;98927.69;4500948;31;19980;-86
2022/03/29 11:44:20;;;;;;;;;;;;;;;26.80;60.66;98923.63;4500947;31;20000;-86
2022/03/29 11:46:50;;;;;;;;;;;;;;;27.02;60.68;98918.56;4500831;31;19995;-86
2022/03/29 11:49:16;;;;;;;;;;;;;;;26.84;60.66;98921.44;4499948;31;19980;-86
2022/03/29 11:51:42;;;;;;;;;;;;;;;26.81;60.66;98911.94;4486450;31;19998;-86
2022/03/29 11:54:07;;;;;;;;;;;;;;;26.64;60.66;98909.50;4499659;31;20341;-85
2022/03/29 11:56:34;;;;;;;;;;;;;;;26.50;60.64;98906.56;4498932;31;30016;-86
2022/03/29 11:59:00;;;;;;;;;;;;;;;26.38;60.64;98897.22;4500972;31;19972;-86
2022/03/29 12:01:28;;;;;;;;;;;;;;;26.39;60.64;98903.41;4500947;31;20022;-86
2022/03/29 12:03:54;;;;;;;;;;;;;;;26.35;60.63;98897.56;4499507;31;19992;-85
2022/03/29 12:06:19;;;;;;;;;;;;;;;26.50;60.65;98890.53;4486410;31;20012;-86
2022/03/29 12:08:50;;;;;;;;;;;;;;;26.56;60.65;98891.69;4500757;31;20000;-85
2022/03/29 12:11:16;;;;;;;;;;;;;;;26.51;60.65;98894.03;4499357;31;20320;-86
2022/03/29 12:13:42;;;;;;;;;;;;;;;26.67;60.65;98883.28;4499361;31;19988;-86
2022/03/29 12:16:18;;;;;;;;;;;;;;;26.73;60.66;98884.41;4499280;31;20032;-86
2022/03/29 12:18:45;;;;;;;;;;;;;;;26.59;60.65;98875.31;4500780;31;20312;-86
2022/03/29 12:21:13;;;;;;;;;;;;;;;26.28;60.63;98885.88;4499257;31;20303;-86
2022/03/29 12:23:38;;;;;;;;;;;;;;;26.01;60.62;98868.41;4486409;31;20053;-86
2022/03/29 12:26:04;;;;;;;;;;;;;;;25.91;60.62;98876.59;4499394;31;20439;-86
2022/03/29 12:28:29;;;;;;;;;;;;;;;25.97;60.62;98865.25;4486109;31;19972;-86
2022/03/29 12:30:55;;;;;;;;;;;;;;;26.06;60.63;98857.25;4500619;31;20023;-87
2022/03/29 12:33:20;;;;;;;;;;;;;;;25.90;60.61;98866.09;4499187;31;20007;-86
2022/03/29 12:35:45;;;;;;;;;;;;;;;25.83;60.62;98865.13;4499397;31;20068;-86
2022/03/29 12:38:11;;;;;;;;;;;;;;;25.81;60.61;98846.62;4499346;31;20020;-85
2022/03/29 12:40:37;;;;;;;;;;;;;;;25.82;60.61;98847.44;4499288;31;20300;-86
2022/03/29 12:43:08;;;;;;;;;;;;;;;25.88;60.61;98836.94;4499188;31;19996;-86
2022/03/29 12:45:34;;;;;;;;;;;;;;;26.09;60.63;98843.56;4500678;31;19995;-86
2022/03/29 12:48:00;;;;;;;;;;;;;;;25.93;60.62;98839.94;4500503;31;19999;-86
2022/03/29 12:50:25;;;;;;;;;;;;;;;25.88;60.61;98826.28;4499351;31;19976;-85
2022/03/29 12:52:50;;;;;;;;;;;;;;;25.70;60.60;98817.63;4499247;31;20276;-86
2022/03/29 12:55:19;;;;;;;;;;;;;;;25.79;60.61;98835.28;4500506;31;20000;-86
2022/03/29 12:57:45;;;;;;;;;;;;;;;25.93;60.62;98820.44;4499157;31;20265;-86
2022/03/29 13:00:15;;;;;;;;;;;;;;;25.85;60.62;98821.28;4500563;31;20321;-86